Time;durP1;ratioP1;P1;durP2;ratioP2;P2;SDS_P1;SDS_P2;PMS_P1;PMS_P2;Temp;Humidity;BMP_temperature;BMP_pressure;BME280_temperature;BME280_humidity;BME280_pressure;Samples;Min_cycle;Max_cycle;Signal;HPM_P1;HPM_P2
2022/05/22 00:01:39;;;;;;;3.70;1.48;;;11.30;99.90;;;;;;4929805;29;20717;-82
2022/05/22 00:04:05;;;;;;;5.18;1.95;;;11.00;99.90;;;;;;4927430;29;20185;-79
2022/05/22 00:06:30;;;;;;;3.43;1.93;;;11.00;99.90;;;;;;4926628;29;21599;-85
2022/05/22 00:08:56;;;;;;;2.63;1.50;;;10.90;99.90;;;;;;4923807;29;20193;-82
2022/05/22 00:11:24;;;;;;;1.27;1.17;;;10.90;99.90;;;;;;4918554;29;20217;-81
2022/05/22 00:13:50;;;;;;;2.17;1.50;;;10.80;99.90;;;;;;4916133;29;20608;-82
2022/05/22 00:19:02;;;;;;;5.70;1.30;;;;;;;;;;4918554;29;20797;-80
2022/05/22 00:21:27;;;;;;;5.88;1.50;;;10.70;99.90;;;;;;4923550;29;20213;-82
2022/05/22 00:23:53;;;;;;;4.17;1.80;;;10.60;99.90;;;;;;4914825;29;20736;-83
2022/05/22 00:26:18;;;;;;;3.07;1.40;;;10.70;99.90;;;;;;4920391;29;20195;-82
2022/05/22 00:28:44;;;;;;;3.17;1.70;;;10.60;99.90;;;;;;4921815;29;20223;-81
2022/05/22 00:31:10;;;;;;;2.10;1.77;;;10.60;99.90;;;;;;4920237;29;20221;-81
2022/05/22 00:33:36;;;;;;;3.53;1.60;;;10.60;99.90;;;;;;4900603;29;20458;-80
2022/05/22 00:36:02;;;;;;;2.10;1.63;;;10.70;99.90;;;;;;4897678;29;21201;-80
2022/05/22 00:38:27;;;;;;;1.90;1.70;;;10.70;99.90;;;;;;4909682;29;20182;-78
2022/05/22 00:40:53;;;;;;;2.10;1.47;;;;;;;;;;4919115;29;21698;-84
2022/05/22 00:43:34;;;;;;;1.57;1.47;;;10.70;99.90;;;;;;4915308;29;20256;-82
2022/05/22 00:46:01;;;;;;;3.42;1.85;;;10.70;99.90;;;;;;4924814;29;20454;-81
2022/05/22 00:48:28;;;;;;;4.18;2.22;;;10.70;99.90;;;;;;4912790;29;20182;-79
2022/05/22 00:50:56;;;;;;;8.98;2.30;;;10.60;99.90;;;;;;4925090;29;20382;-81
2022/05/22 00:53:23;;;;;;;5.68;1.63;;;10.60;99.90;;;;;;4917666;29;20847;-83
2022/05/22 00:55:49;;;;;;;6.63;1.45;;;10.50;99.90;;;;;;4919994;29;20196;-79
2022/05/22 00:58:18;;;;;;;8.50;3.23;;;10.50;99.90;;;;;;4921124;29;20196;-81
2022/05/22 01:00:44;;;;;;;3.35;1.88;;;10.50;99.90;;;;;;4907770;29;20429;-81
2022/05/22 01:03:28;;;;;;;2.33;1.42;;;10.50;99.90;;;;;;4915278;29;20193;-81
2022/05/22 01:06:04;;;;;;;2.50;2.17;;;10.50;99.90;;;;;;4920597;29;20181;-84
2022/05/22 01:08:31;;;;;;;7.47;2.70;;;10.40;99.90;;;;;;4921800;29;20181;-81
2022/05/22 01:11:04;;;;;;;3.72;1.70;;;10.40;99.90;;;;;;4916145;29;20312;-82
2022/05/22 01:13:39;;;;;;;2.10;1.60;;;10.30;99.90;;;;;;4911084;29;20185;-81
2022/05/22 01:16:05;;;;;;;3.70;1.92;;;10.30;99.90;;;;;;4914751;29;20259;-82
2022/05/22 01:18:48;;;;;;;4.63;1.90;;;10.30;99.90;;;;;;4909475;29;20181;-81
2022/05/22 01:21:20;;;;;;;3.42;2.15;;;10.20;99.90;;;;;;4906640;29;20458;-80
2022/05/22 01:23:46;;;;;;;3.28;2.10;;;10.20;99.90;;;;;;4912340;29;20188;-84
2022/05/22 01:26:13;;;;;;;3.17;2.08;;;10.20;99.90;;;;;;4917426;29;20204;-81
2022/05/22 01:28:39;;;;;;;4.10;1.95;;;10.20;99.90;;;;;;4968274;23;20261;-85
2022/05/22 01:31:05;;;;;;;2.80;1.93;;;10.30;99.90;;;;;;4929890;29;20216;-86
2022/05/22 01:33:34;;;;;;;4.07;2.03;;;10.20;99.90;;;;;;4932194;29;20749;-86
2022/05/22 01:36:00;;;;;;;5.43;2.22;;;;;;;;;;4928328;29;20429;-87
2022/05/22 01:38:26;;;;;;;2.60;1.65;;;10.10;99.90;;;;;;4929359;29;20188;-83
2022/05/22 01:40:51;;;;;;;2.83;2.23;;;10.10;99.90;;;;;;4933202;29;20820;-87
2022/05/22 01:43:17;;;;;;;5.13;2.00;;;10.00;99.90;;;;;;4934382;29;20193;-85
2022/05/22 01:45:43;;;;;;;5.13;1.57;;;10.10;99.90;;;;;;4932506;29;20265;-87
2022/05/22 01:48:10;;;;;;;2.97;2.67;;;;;;;;;;4938790;29;20178;-87
2022/05/22 01:50:38;;;;;;;4.07;3.70;;;10.10;99.90;;;;;;4934153;29;20169;-89
2022/05/22 01:53:04;;;;;;;6.72;3.92;;;;;;;;;;4929061;29;20208;-86
2022/05/22 01:55:30;;;;;;;3.17;2.27;;;;;;;;;;4931644;29;20181;-85
2022/05/22 01:57:56;;;;;;;4.20;1.40;;;;;;;;;;4926612;29;20532;-87
2022/05/22 02:00:24;;;;;;;8.50;1.77;;;10.00;99.90;;;;;;4933478;29;20771;-86
2022/05/22 02:02:50;;;;;;;8.40;2.28;;;;;;;;;;4934916;29;20894;-85
2022/05/22 02:05:17;;;;;;;3.10;2.08;;;9.90;99.90;;;;;;4938049;29;20205;-84
2022/05/22 02:10:28;;;;;;;3.45;2.72;;;10.00;99.90;;;;;;4943864;29;20260;-87
2022/05/22 02:12:53;;;;;;;7.22;1.92;;;9.90;99.90;;;;;;4941279;29;20201;-86
2022/05/22 02:15:20;;;;;;;2.80;2.00;;;9.90;99.90;;;;;;4942182;29;20201;-85
2022/05/22 02:17:45;;;;;;;3.78;2.28;;;9.80;99.90;;;;;;4937702;29;20425;-83
2022/05/22 02:20:11;;;;;;;2.27;2.07;;;9.80;99.90;;;;;;4934488;29;20197;-84
2022/05/22 02:22:45;;;;;;;2.55;2.28;;;9.70;99.90;;;;;;4930885;29;20193;-84
2022/05/22 02:25:13;;;;;;;3.47;2.55;;;9.70;99.90;;;;;;4937589;29;21845;-83
2022/05/22 02:27:39;;;;;;;8.07;2.30;;;9.70;99.90;;;;;;4946413;28;20663;-84
2022/05/22 02:30:06;;;;;;;3.47;2.23;;;9.80;99.90;;;;;;4935480;29;20181;-84
2022/05/22 02:32:31;;;;;;;4.63;2.50;;;9.80;99.90;;;;;;4928415;29;20988;-83
2022/05/22 02:34:57;;;;;;;3.30;2.70;;;;;;;;;;4937135;29;20242;-83
2022/05/22 02:37:23;;;;;;;3.90;2.90;;;9.80;99.90;;;;;;4926331;29;20619;-82
2022/05/22 02:39:48;;;;;;;3.90;2.53;;;9.70;99.90;;;;;;4930393;29;20454;-81
2022/05/22 02:42:14;;;;;;;5.73;2.50;;;9.80;99.90;;;;;;4932892;29;20193;-83
2022/05/22 02:44:39;;;;;;;5.03;4.03;;;9.80;99.90;;;;;;4933136;29;20229;-83
2022/05/22 02:47:06;;;;;;;7.47;3.07;;;;;;;;;;4933943;29;20208;-82
2022/05/22 02:49:33;;;;;;;5.55;4.20;;;10.00;99.90;;;;;;4929943;29;20455;-81
2022/05/22 02:52:00;;;;;;;6.43;3.00;;;10.00;99.90;;;;;;4927859;29;20213;-81
2022/05/22 02:54:26;;;;;;;4.40;3.38;;;10.00;99.90;;;;;;4933897;29;20205;-82
2022/05/22 02:56:51;;;;;;;4.30;3.30;;;10.00;99.90;;;;;;4932368;29;20191;-82
2022/05/22 02:59:17;;;;;;;3.17;2.47;;;10.10;99.90;;;;;;4937804;29;20550;-81
2022/05/22 03:01:43;;;;;;;2.73;2.33;;;;;;;;;;4932250;29;20185;-81
2022/05/22 03:04:08;;;;;;;3.70;3.03;;;9.80;99.90;;;;;;4931093;29;20869;-81
2022/05/22 03:06:38;;;;;;;4.37;3.93;;;;;;;;;;4931367;29;20448;-81
2022/05/22 03:09:05;;;;;;;5.80;3.28;;;9.80;99.90;;;;;;4929496;29;20187;-81
2022/05/22 03:11:30;;;;;;;9.20;4.50;;;9.80;99.90;;;;;;4932134;29;20209;-81
2022/05/22 03:13:56;;;;;;;6.50;3.97;;;9.80;99.90;;;;;;4932431;29;20201;-81
2022/05/22 03:16:21;;;;;;;6.30;3.93;;;9.80;99.90;;;;;;4932231;29;20184;-83
2022/05/22 03:18:47;;;;;;;6.17;3.90;;;9.80;99.90;;;;;;4937012;29;20180;-87
2022/05/22 03:21:13;;;;;;;4.80;3.90;;;9.80;99.90;;;;;;4937226;29;20509;-85
2022/05/22 03:23:39;;;;;;;5.50;4.18;;;;;;;;;;4937577;29;20193;-87
2022/05/22 03:26:05;;;;;;;6.55;4.25;;;;;;;;;;4935335;29;20829;-87
2022/05/22 03:28:31;;;;;;;7.03;4.50;;;9.90;99.90;;;;;;4938811;29;20709;-88
2022/05/22 03:33:24;;;;;;;4.05;3.10;;;9.90;99.90;;;;;;4930171;29;20235;-84
2022/05/22 03:35:50;;;;;;;5.63;3.30;;;9.90;99.90;;;;;;4931211;29;20201;-80
2022/05/22 03:38:16;;;;;;;4.97;4.10;;;9.90;99.90;;;;;;4921645;29;20190;-80
2022/05/22 03:40:48;;;;;;;13.33;3.47;;;9.90;99.90;;;;;;4904482;29;20290;-83
2022/05/22 03:43:14;;;;;;;5.53;3.55;;;10.00;99.90;;;;;;4898326;29;20179;-83
2022/05/22 03:45:40;;;;;;;10.00;3.83;;;10.00;99.90;;;;;;4901302;29;20198;-82
2022/05/22 03:48:06;;;;;;;4.53;3.40;;;10.00;99.90;;;;;;4905985;29;20622;-82
2022/05/22 03:50:31;;;;;;;11.63;5.00;;;10.00;99.90;;;;;;4908410;29;20473;-83
2022/05/22 03:52:57;;;;;;;4.80;4.00;;;10.30;99.90;;;;;;4893721;29;21143;-81
2022/05/22 03:55:23;;;;;;;7.87;4.70;;;11.00;99.90;;;;;;4896549;29;20179;-83
2022/05/22 03:57:48;;;;;;;10.70;5.50;;;11.40;99.90;;;;;;4896116;29;20185;-81
2022/05/22 04:00:16;;;;;;;5.30;3.53;;;11.50;99.90;;;;;;4892194;29;20213;-84
2022/05/22 04:02:42;;;;;;;4.72;3.70;;;11.60;99.90;;;;;;4905526;29;20193;-84
2022/05/22 04:05:09;;;;;;;3.60;3.30;;;11.70;99.90;;;;;;4897424;29;20198;-85
2022/05/22 04:07:39;;;;;;;5.32;3.85;;;11.60;99.90;;;;;;4894298;29;20196;-83
2022/05/22 04:10:06;;;;;;;4.40;4.00;;;11.60;99.90;;;;;;4898162;29;20218;-84
2022/05/22 04:12:32;;;;;;;6.72;4.43;;;11.70;99.90;;;;;;4899743;29;20735;-85
2022/05/22 04:14:57;;;;;;;4.43;3.83;;;11.80;99.90;;;;;;4900884;29;20217;-83
2022/05/22 04:17:23;;;;;;;6.67;4.50;;;12.10;99.90;;;;;;4895607;29;20258;-82
2022/05/22 04:19:49;;;;;;;5.80;4.77;;;12.50;99.90;;;;;;4907513;29;20293;-84
2022/05/22 04:22:14;;;;;;;5.23;4.77;;;12.40;99.90;;;;;;4897692;29;20451;-84
2022/05/22 04:27:24;;;;;;;6.55;4.60;;;13.20;99.90;;;;;;4902232;29;20290;-82
2022/05/22 04:29:49;;;;;;;9.40;4.50;;;13.80;99.90;;;;;;4901148;29;20290;-81
2022/05/22 04:32:14;;;;;;;6.67;3.40;;;14.40;99.90;;;;;;4898858;29;20435;-84
2022/05/22 04:34:40;;;;;;;10.60;4.13;;;15.80;99.90;;;;;;4899869;29;20257;-83
2022/05/22 04:37:06;;;;;;;6.03;3.17;;;18.30;99.90;;;;;;4896832;29;20246;-81
2022/05/22 04:39:31;;;;;;;6.07;3.70;;;22.80;99.90;;;;;;4898463;29;20186;-80
2022/05/22 04:41:57;;;;;;;6.20;3.07;;;23.00;99.90;;;;;;4899573;29;22319;-83
2022/05/22 04:44:22;;;;;;;3.80;3.00;;;24.80;99.90;;;;;;4901357;29;20194;-83
2022/05/22 04:46:48;;;;;;;4.13;3.40;;;24.10;99.90;;;;;;4898585;29;20743;-83
2022/05/22 04:49:14;;;;;;;3.87;3.47;;;;;;;;;;4902522;29;20193;-86
2022/05/22 04:51:40;;;;;;;4.80;3.60;;;;;;;;;;4896440;29;20362;-83
2022/05/22 04:54:06;;;;;;;6.57;4.10;;;;;;;;;;4894478;29;20493;-83
2022/05/22 04:56:31;;;;;;;3.77;3.03;;;24.70;93.50;;;;;;4891563;29;20919;-82
2022/05/22 04:58:57;;;;;;;4.73;3.57;;;23.40;96.30;;;;;;4895351;29;20443;-84
2022/05/22 05:01:23;;;;;;;4.57;3.80;;;22.70;98.70;;;;;;4897609;29;20202;-85
2022/05/22 05:03:49;;;;;;;3.73;3.40;;;21.00;99.90;;;;;;4904224;29;20735;-85
2022/05/22 05:06:15;;;;;;;6.30;4.20;;;20.40;99.90;;;;;;4904574;29;20453;-87
2022/05/22 05:08:41;;;;;;;4.17;3.37;;;;;;;;;;4901818;29;20186;-87
2022/05/22 05:11:10;;;;;;;5.17;3.63;;;20.60;99.90;;;;;;4900957;29;20472;-84
2022/05/22 05:13:37;;;;;;;5.10;2.83;;;20.60;99.90;;;;;;4893212;29;20520;-86
2022/05/22 05:16:05;;;;;;;5.90;3.73;;;22.70;99.90;;;;;;4900994;29;20435;-80
2022/05/22 05:18:31;;;;;;;3.83;3.53;;;22.60;99.90;;;;;;4899877;29;20442;-82
2022/05/22 05:21:03;;;;;;;4.13;2.87;;;22.60;99.90;;;;;;4896241;29;20466;-83
2022/05/22 05:23:28;;;;;;;4.20;3.80;;;22.00;99.90;;;;;;4892117;29;20257;-83
2022/05/22 05:25:54;;;;;;;4.80;3.30;;;22.60;99.90;;;;;;4909256;29;20805;-83
2022/05/22 05:28:20;;;;;;;6.90;4.80;;;23.20;99.90;;;;;;4892739;29;20213;-83
2022/05/22 05:30:45;;;;;;;7.60;4.33;;;;;;;;;;4898346;29;20231;-82
2022/05/22 05:33:11;;;;;;;5.90;3.13;;;25.40;96.40;;;;;;4892660;29;20206;-83
2022/05/22 05:35:37;;;;;;;10.03;4.43;;;27.40;94.80;;;;;;4890939;29;20967;-82
2022/05/22 05:38:03;;;;;;;4.47;3.90;;;;;;;;;;4893102;29;20194;-87
2022/05/22 05:40:29;;;;;;;5.03;4.10;;;31.00;87.20;;;;;;4893088;29;21009;-85
2022/05/22 05:42:54;;;;;;;7.43;4.93;;;;;;;;;;4893648;29;20445;-83
2022/05/22 05:45:21;;;;;;;6.73;5.00;;;;;;;;;;4896069;29;20193;-81
2022/05/22 05:47:50;;;;;;;6.00;4.80;;;33.30;75.50;;;;;;4898131;29;20456;-83
2022/05/22 05:50:21;;;;;;;5.10;4.70;;;33.00;60.20;;;;;;4899070;29;20537;-81
2022/05/22 05:52:52;;;;;;;6.03;5.43;;;32.90;60.90;;;;;;4898997;29;20598;-85
2022/05/22 05:55:18;;;;;;;6.40;5.90;;;;;;;;;;4903203;29;20453;-84
2022/05/22 05:57:45;;;;;;;8.30;5.20;;;;;;;;;;4901273;29;20609;-84
2022/05/22 06:00:14;;;;;;;7.57;6.90;;;35.00;53.20;;;;;;4903033;29;20490;-84
2022/05/22 06:02:40;;;;;;;7.03;6.43;;;;;;;;;;4903613;29;20454;-81
2022/05/22 06:05:06;;;;;;;9.30;8.60;;;;;;;;;;4902452;29;20438;-81
2022/05/22 06:07:31;;;;;;;8.70;7.87;;;33.90;59.00;;;;;;4903651;29;21424;-83
2022/05/22 06:09:58;;;;;;;8.43;7.73;;;;;;;;;;4899671;29;20477;-83
2022/05/22 06:12:24;;;;;;;15.23;10.30;;;35.80;51.50;;;;;;4896554;29;20256;-84
2022/05/22 06:14:50;;;;;;;9.47;8.80;;;;;;;;;;4897509;29;20448;-81
2022/05/22 06:17:16;;;;;;;8.43;7.83;;;;;;;;;;4898672;29;20323;-87
2022/05/22 06:19:55;;;;;;;9.30;8.60;;;;;;;;;;4901214;29;20456;-87
2022/05/22 06:22:21;;;;;;;9.10;8.43;;;;;;;;;;4900701;29;20460;-85
2022/05/22 06:24:48;;;;;;;9.53;8.57;;;;;;;;;;4900745;29;20447;-83
2022/05/22 06:27:14;;;;;;;9.17;8.47;;;;;;;;;;4906685;29;20479;-83
2022/05/22 06:29:40;;;;;;;9.67;9.07;;;;;;;;;;4899981;29;20466;-82
2022/05/22 06:32:07;;;;;;;9.10;8.60;;;34.20;49.60;;;;;;4897513;29;20476;-85
2022/05/22 06:34:41;;;;;;;9.37;8.60;;;35.00;49.80;;;;;;4898576;29;20448;-83
2022/05/22 06:37:08;;;;;;;10.90;9.80;;;34.30;48.90;;;;;;4893843;29;20476;-87
2022/05/22 06:39:51;;;;;;;9.37;8.77;;;33.20;50.60;;;;;;4886565;29;22976;-84
2022/05/22 06:42:31;;;;;;;9.80;8.90;;;33.00;53.10;;;;;;4879080;29;20459;-86
2022/05/22 06:45:13;;;;;;;8.37;7.40;;;33.30;52.40;;;;;;4888312;29;20573;-85
2022/05/22 06:47:39;;;;;;;9.67;9.00;;;;;;;;;;4882672;29;20470;-83
2022/05/22 06:50:08;;;;;;;9.80;8.90;;;33.90;52.20;;;;;;4879212;29;21258;-87
2022/05/22 06:52:35;;;;;;;9.67;8.90;;;;;;;;;;4885909;29;20475;-86
2022/05/22 06:55:01;;;;;;;8.27;7.57;;;;;;;;;;4878840;29;20440;-84
2022/05/22 06:57:28;;;;;;;10.10;9.20;;;;;;;;;;4885658;29;21357;-88
2022/05/22 06:59:57;;;;;;;9.73;8.97;;;33.80;51.80;;;;;;4907422;29;21037;-86
2022/05/22 07:02:27;;;;;;;9.40;8.80;;;32.90;51.60;;;;;;4902409;29;20475;-86
2022/05/22 07:04:53;;;;;;;8.57;7.87;;;;;;;;;;4902301;29;20885;-89
2022/05/22 07:07:19;;;;;;;9.80;8.97;;;;;;;;;;4892231;29;20561;-85
2022/05/22 07:09:45;;;;;;;9.40;8.77;;;;;;;;;;4897337;29;21205;-85
2022/05/22 07:12:12;;;;;;;10.40;9.70;;;35.50;49.40;;;;;;4897726;29;21068;-83
2022/05/22 07:14:38;;;;;;;10.10;9.50;;;;;;;;;;4893755;29;20433;-81
2022/05/22 07:17:05;;;;;;;10.20;9.57;;;32.30;52.50;;;;;;4892223;29;20469;-85
2022/05/22 07:19:34;;;;;;;10.30;9.47;;;;;;;;;;4894990;29;20481;-85
2022/05/22 07:22:06;;;;;;;9.67;9.00;;;34.90;52.40;;;;;;4888859;29;20431;-83
2022/05/22 07:24:33;;;;;;;10.10;9.50;;;36.30;49.00;;;;;;4895653;29;20451;-85
2022/05/22 07:26:59;;;;;;;10.87;9.97;;;;;;;;;;4900154;29;20446;-83
2022/05/22 07:29:25;;;;;;;10.63;9.87;;;;;;;;;;4897734;29;20746;-84
2022/05/22 07:31:51;;;;;;;11.30;10.60;;;;;;;;;;4897623;29;21117;-84
2022/05/22 07:34:17;;;;;;;11.57;10.70;;;;;;;;;;4896850;29;20482;-83
2022/05/22 07:36:43;;;;;;;13.33;12.47;;;;;;;;;;4899387;29;20885;-84
2022/05/22 07:39:09;;;;;;;12.47;11.67;;;;;;;;;;4900752;29;20470;-81
2022/05/22 07:41:35;;;;;;;14.27;13.47;;;;;;;;;;4895134;29;20860;-83
2022/05/22 07:44:01;;;;;;;13.67;12.97;;;;;;;;;;4913066;29;20445;-84
2022/05/22 07:46:27;;;;;;;13.47;12.60;;;;;;;;;;4898662;29;20450;-82
2022/05/22 07:48:53;;;;;;;14.33;13.67;;;;;;;;;;4900553;29;20525;-85
2022/05/22 07:51:20;;;;;;;14.20;13.30;;;;;;;;;;4898441;29;20478;-82
2022/05/22 07:53:45;;;;;;;15.03;14.13;;;;;;;;;;4898635;29;20907;-85
2022/05/22 07:56:13;;;;;;;14.43;13.63;;;;;;;;;;4901475;29;20548;-82
2022/05/22 07:58:39;;;;;;;14.67;13.77;;;;;;;;;;4901912;29;20457;-82
2022/05/22 08:01:05;;;;;;;14.90;13.83;;;;;;;;;;4900247;29;20497;-83
2022/05/22 08:03:32;;;;;;;14.43;13.60;;;;;;;;;;4895034;29;20535;-83
2022/05/22 08:05:58;;;;;;;12.80;12.20;;;34.40;44.70;;;;;;4901804;29;20452;-84
2022/05/22 08:08:24;;;;;;;13.37;12.77;;;33.00;44.30;;;;;;4901363;29;20449;-83
2022/05/22 08:10:50;;;;;;;11.70;10.80;;;;;;;;;;4895574;29;20283;-81
2022/05/22 08:13:16;;;;;;;11.60;10.70;;;31.20;46.90;;;;;;4904868;29;20473;-83
2022/05/22 08:15:43;;;;;;;14.23;10.53;;;31.90;48.30;;;;;;4901508;29;20489;-82
2022/05/22 08:18:09;;;;;;;10.60;9.90;;;31.90;48.80;;;;;;4894084;29;20457;-86
2022/05/22 08:20:37;;;;;;;9.70;9.27;;;34.20;46.00;;;;;;4899468;29;20466;-84
2022/05/22 08:23:07;;;;;;;12.83;9.87;;;34.90;49.20;;;;;;4894690;29;20456;-84
2022/05/22 08:25:33;;;;;;;11.37;10.80;;;;;;;;;;4893776;29;20450;-83
2022/05/22 08:27:59;;;;;;;11.47;10.87;;;;;;;;;;4915417;29;21633;-82
2022/05/22 08:30:27;;;;;;;11.97;11.07;;;33.40;43.50;;;;;;4904896;29;20737;-85
2022/05/22 08:32:54;;;;;;;11.33;10.73;;;33.10;44.00;;;;;;4901583;29;21016;-83
2022/05/22 08:35:23;;;;;;;11.37;10.67;;;32.90;44.10;;;;;;4899823;29;20513;-81
2022/05/22 08:37:49;;;;;;;10.50;9.90;;;;;;;;;;4895764;29;20510;-85
2022/05/22 08:40:16;;;;;;;10.47;9.87;;;33.30;45.20;;;;;;4901356;29;21061;-86
2022/05/22 08:43:02;;;;;;;10.03;9.43;;;33.40;44.20;;;;;;4916372;29;20443;-86
2022/05/22 08:45:40;;;;;;;11.13;10.63;;;33.40;42.70;;;;;;4901456;29;20452;-84
2022/05/22 08:48:24;;;;;;;10.37;9.90;;;34.20;42.60;;;;;;4901254;29;20448;-84
2022/05/22 08:50:50;;;;;;;10.50;9.90;;;;;;;;;;4903859;29;20497;-81
2022/05/22 08:53:25;;;;;;;11.90;10.93;;;34.80;40.30;;;;;;4895836;29;20468;-83
2022/05/22 08:58:57;;;;;;;10.20;9.60;;;34.60;41.60;;;;;;4900990;29;20993;-80
2022/05/22 09:01:43;;;;;;;10.80;10.30;;;35.10;41.10;;;;;;4897526;29;20471;-85
2022/05/22 09:04:35;;;;;;;12.30;11.27;;;33.90;40.80;;;;;;4896803;29;21127;-83
2022/05/22 09:07:01;;;;;;;12.97;12.07;;;;;;;;;;4906281;29;20456;-83
2022/05/22 09:09:31;;;;;;;11.23;10.53;;;33.60;41.50;;;;;;4908934;29;20459;-84
2022/05/22 09:12:08;;;;;;;10.70;10.20;;;32.70;41.60;;;;;;4899727;29;20514;-83
2022/05/22 09:14:34;;;;;;;11.00;10.40;;;;;;;;;;4902598;29;20522;-85
2022/05/22 09:17:09;;;;;;;10.90;10.30;;;32.40;43.40;;;;;;4898985;29;20590;-85
2022/05/22 09:19:53;;;;;;;10.43;9.60;;;33.60;44.50;;;;;;4903084;29;21513;-84
2022/05/22 09:22:51;;;;;;;11.47;10.87;;;34.40;40.70;;;;;;4901968;29;20436;-85
2022/05/22 09:25:26;;;;;;;10.67;10.17;;;32.80;41.00;;;;;;4903256;29;20506;-86
2022/05/22 09:27:57;;;;;;;11.03;10.53;;;33.00;42.00;;;;;;4907268;29;20511;-84
2022/05/22 09:30:45;;;;;;;10.30;9.70;;;33.50;42.30;;;;;;4903523;29;20544;-88
2022/05/22 09:33:11;;;;;;;11.00;10.30;;;;;;;;;;4901676;29;20491;-84
2022/05/22 09:36:08;;;;;;;11.10;10.50;;;33.70;47.80;;;;;;4917597;29;20470;-86
2022/05/22 09:38:55;;;;;;;10.33;9.70;;;32.80;42.80;;;;;;4917410;29;20451;-86
2022/05/22 09:41:36;;;;;;;10.13;9.53;;;33.00;43.60;;;;;;4928901;29;20464;-87
2022/05/22 09:44:23;;;;;;;9.97;9.47;;;32.40;41.90;;;;;;4924000;29;21055;-88
2022/05/22 09:46:58;;;;;;;9.90;9.30;;;32.30;42.40;;;;;;4925346;29;20422;-86
2022/05/22 09:49:53;;;;;;;10.43;9.70;;;33.60;41.70;;;;;;4908819;29;21089;-86
2022/05/22 09:52:29;;;;;;;9.80;9.30;;;34.60;41.70;;;;;;4910783;29;20472;-87
2022/05/22 09:55:19;;;;;;;10.40;9.80;;;35.50;40.30;;;;;;4908871;29;20800;-84
2022/05/22 09:57:48;;;;;;;10.77;10.10;;;34.90;48.10;;;;;;4910296;29;20418;-87
2022/05/22 10:00:20;;;;;;;11.27;10.67;;;34.40;48.80;;;;;;4947539;29;20454;-89
2022/05/22 10:03:34;;;;;;;11.07;10.23;;;34.80;40.00;;;;;;4950635;29;20425;-89
2022/05/22 10:06:31;;;;;;;10.30;9.70;;;34.60;40.50;;;;;;4947235;29;20784;-87
2022/05/22 10:09:28;;;;;;;11.17;10.37;;;33.70;40.40;;;;;;4929015;29;20432;-87
2022/05/22 10:12:01;;;;;;;10.23;9.73;;;33.60;40.80;;;;;;4927277;29;20501;-89
2022/05/22 10:14:48;;;;;;;9.90;9.40;;;33.80;40.80;;;;;;4928998;29;20535;-88
2022/05/22 10:17:23;;;;;;;10.10;9.27;;;33.30;41.90;;;;;;4930337;29;20396;-86
2022/05/22 10:20:09;;;;;;;10.00;9.30;;;32.60;42.60;;;;;;4928054;29;20448;-88
2022/05/22 10:23:10;;;;;;;10.00;9.40;;;33.30;41.90;;;;;;4929071;29;20433;-88
2022/05/22 10:29:37;;;;;;;9.30;8.80;;;30.30;45.50;;;;;;4940786;29;20401;-87
2022/05/22 10:32:47;;;;;;;7.00;6.50;;;29.00;49.00;;;;;;4949610;29;20496;-87
2022/05/22 10:35:33;;;;;;;5.70;5.20;;;27.20;51.00;;;;;;4949491;29;20468;-87
2022/05/22 10:38:09;;;;;;;5.20;4.80;;;27.10;50.70;;;;;;4936338;29;20425;-86
2022/05/22 10:43:32;;;;;;;4.90;4.20;;;26.40;51.50;;;;;;4922758;29;20452;-86
2022/05/22 10:45:58;;;;;;;6.33;3.60;;;26.40;52.30;;;;;;4927566;29;20424;-87
2022/05/22 10:48:24;;;;;;;4.50;3.73;;;;;;;;;;4930226;29;20430;-86
2022/05/22 10:51:02;;;;;;;5.10;2.73;;;25.40;54.10;;;;;;4929368;29;20214;-88
2022/05/22 10:53:30;;;;;;;2.90;2.70;;;25.40;58.00;;;;;;4922682;29;20455;-85
2022/05/22 10:56:06;;;;;;;2.90;2.70;;;25.40;58.60;;;;;;4918011;29;20452;-88
2022/05/22 10:58:35;;;;;;;3.47;2.83;;;25.90;56.00;;;;;;4911855;29;20435;-90
2022/05/22 11:01:15;;;;;;;3.37;3.07;;;26.00;54.80;;;;;;4921086;29;20459;-86
2022/05/22 11:04:12;;;;;;;4.03;3.00;;;25.80;55.10;;;;;;4921612;29;20455;-90
2022/05/22 11:06:57;;;;;;;4.63;2.90;;;25.80;56.20;;;;;;4912610;29;20922;-85
2022/05/22 11:09:30;;;;;;;3.13;2.57;;;25.80;57.80;;;;;;4918978;29;20947;-88
2022/05/22 11:12:22;;;;;;;7.00;2.90;;;25.80;58.10;;;;;;4921980;29;20553;-86
2022/05/22 11:14:49;;;;;;;2.83;2.63;;;25.50;56.30;;;;;;4924100;29;20477;-87
2022/05/22 11:17:21;;;;;;;3.77;2.30;;;25.50;56.50;;;;;;4923996;29;21023;-86
2022/05/22 11:20:01;;;;;;;4.40;2.63;;;25.60;57.60;;;;;;4935234;29;20454;-87
2022/05/22 11:22:58;;;;;;;3.93;3.03;;;26.10;53.60;;;;;;4920020;29;20471;-87
2022/05/22 11:26:03;;;;;;;2.53;2.33;;;25.80;52.70;;;;;;4924459;29;20426;-87
2022/05/22 11:28:57;;;;;;;4.70;2.40;;;25.70;53.70;;;;;;4916291;29;20550;-85
2022/05/22 11:31:47;;;;;;;3.03;2.40;;;24.90;54.40;;;;;;4915739;29;20495;-87
2022/05/22 11:34:37;;;;;;;2.43;2.20;;;24.80;54.30;;;;;;4911844;29;20426;-87
2022/05/22 11:37:08;;;;;;;2.70;2.50;;;25.00;54.30;;;;;;4926028;29;20423;-88
2022/05/22 11:40:16;;;;;;;2.50;2.30;;;25.40;54.10;;;;;;4924762;29;20415;-90
2022/05/22 11:42:42;;;;;;;2.30;2.10;;;25.40;55.10;;;;;;4927372;29;20418;-88
2022/05/22 11:45:42;;;;;;;2.53;2.27;;;25.80;53.20;;;;;;4927407;29;20424;-87
2022/05/22 11:48:26;;;;;;;3.13;2.60;;;25.10;52.60;;;;;;4929749;29;20205;-87
2022/05/22 11:51:20;;;;;;;7.97;3.03;;;25.30;51.00;;;;;;4945449;29;20436;-87
2022/05/22 11:54:16;;;;;;;2.97;2.33;;;25.40;51.60;;;;;;4927147;29;20437;-86
2022/05/22 11:57:05;;;;;;;3.33;2.43;;;25.10;51.80;;;;;;4927163;29;20777;-87
2022/05/22 11:59:37;;;;;;;6.77;3.20;;;25.40;52.20;;;;;;4933480;29;20926;-86
2022/05/22 12:02:24;;;;;;;2.73;2.53;;;25.40;52.70;;;;;;4923760;29;20509;-88
2022/05/22 12:05:11;;;;;;;3.40;2.53;;;25.40;52.90;;;;;;4933799;29;20481;-88
2022/05/22 12:07:59;;;;;;;4.40;2.80;;;25.10;51.60;;;;;;4911741;29;20437;-87
2022/05/22 12:11:00;;;;;;;3.93;2.97;;;25.10;54.50;;;;;;4927768;29;20437;-90
2022/05/22 12:13:31;;;;;;;2.43;2.33;;;26.00;52.20;;;;;;4883231;29;20477;-89
2022/05/22 12:16:08;;;;;;;3.20;2.90;;;25.50;50.80;;;;;;4917222;29;20497;-89
2022/05/22 12:19:00;;;;;;;2.77;2.57;;;25.60;52.10;;;;;;4927195;29;20434;-88
2022/05/22 12:21:42;;;;;;;2.70;2.50;;;25.60;51.70;;;;;;4914907;29;20439;-87
2022/05/22 12:24:22;;;;;;;4.07;2.60;;;25.50;51.00;;;;;;4909303;29;20768;-87
2022/05/22 12:26:49;;;;;;;5.37;2.17;;;25.80;50.70;;;;;;4917254;29;20427;-87
2022/05/22 12:29:25;;;;;;;3.70;2.70;;;25.90;50.70;;;;;;4934123;29;20410;-87
2022/05/22 12:31:59;;;;;;;3.40;2.67;;;25.90;51.00;;;;;;4930241;29;20474;-88
2022/05/22 12:34:40;;;;;;;2.50;2.30;;;25.50;51.80;;;;;;4919564;29;20443;-87
2022/05/22 12:37:12;;;;;;;2.17;2.07;;;25.50;52.50;;;;;;4926301;29;20451;-87
2022/05/22 12:39:47;;;;;;;2.87;2.10;;;24.80;53.20;;;;;;4929949;29;20448;-86
2022/05/22 12:42:27;;;;;;;2.30;2.00;;;24.70;53.80;;;;;;4926528;29;20565;-88
2022/05/22 12:44:53;;;;;;;2.20;2.00;;;24.70;53.60;;;;;;4926097;29;20441;-86
2022/05/22 12:47:19;;;;;;;2.30;2.20;;;25.50;53.20;;;;;;4927233;29;20433;-90
2022/05/22 12:49:57;;;;;;;4.57;2.50;;;25.50;52.60;;;;;;4924977;29;20233;-90
2022/05/22 12:52:26;;;;;;;4.33;3.13;;;25.90;52.00;;;;;;4924239;29;20781;-88
2022/05/22 12:55:47;;;;;;;1.93;1.83;;;28.00;54.60;;;;;;4916486;29;20436;-86
2022/05/22 12:58:31;;;;;;;2.97;2.50;;;27.00;50.00;;;;;;4892160;29;20465;-88
2022/05/22 13:00:56;;;;;;;3.00;2.80;;;27.10;48.50;;;;;;4931785;29;20718;-86
2022/05/22 13:03:36;;;;;;;5.13;2.93;;;27.10;48.80;;;;;;4925767;29;20459;-88
2022/05/22 13:06:18;;;;;;;3.30;2.80;;;26.80;50.50;;;;;;4918580;29;20223;-88
2022/05/22 13:08:49;;;;;;;3.60;2.47;;;26.60;52.30;;;;;;4917822;29;20468;-88
2022/05/22 13:11:19;;;;;;;3.80;2.63;;;26.00;51.80;;;;;;4916440;29;20479;-88
2022/05/22 13:13:49;;;;;;;5.13;2.83;;;26.00;52.30;;;;;;4923750;29;20438;-88
2022/05/22 13:16:26;;;;;;;3.50;2.77;;;25.90;50.80;;;;;;4926636;29;20977;-86
2022/05/22 13:18:53;;;;;;;5.00;2.67;;;25.60;53.10;;;;;;4922643;29;20439;-88
2022/05/22 13:21:35;;;;;;;2.70;2.20;;;25.40;51.70;;;;;;4912270;29;21227;-87
2022/05/22 13:24:23;;;;;;;2.67;2.47;;;26.10;52.10;;;;;;4914954;29;20873;-86
2022/05/22 13:27:19;;;;;;;3.10;2.80;;;26.80;52.40;;;;;;4914016;29;20446;-87
2022/05/22 13:29:50;;;;;;;4.70;2.83;;;27.30;51.50;;;;;;4910414;29;20814;-88
2022/05/22 13:32:50;;;;;;;2.90;2.70;;;27.70;49.70;;;;;;4914892;29;20549;-86
2022/05/22 13:35:23;;;;;;;2.70;2.50;;;27.70;50.20;;;;;;4918225;29;20438;-87
2022/05/22 13:37:55;;;;;;;3.70;2.70;;;27.60;48.20;;;;;;4908414;29;20418;-87
2022/05/22 13:41:01;;;;;;;5.60;2.80;;;26.70;48.50;;;;;;4904685;29;20947;-87
2022/05/22 13:44:05;;;;;;;3.60;2.70;;;26.70;49.50;;;;;;4908383;29;20502;-88
2022/05/22 13:47:05;;;;;;;3.27;2.97;;;26.70;51.50;;;;;;4910602;29;20703;-86
2022/05/22 13:52:34;;;;;;;3.00;2.80;;;27.60;50.70;;;;;;4915083;29;20439;-87
2022/05/22 13:53:02;;;;;;;3.37;2.90;;;27.60;51.20;;;;;;4918909;29;20537;-86